sensor_id;sensor_type;location;lat;lon;timestamp;temperature;humidity
2130;DHT22;1071;52.544;13.374;2023-04-03T00:02:12;5.40;97.80
2130;DHT22;1071;52.544;13.374;2023-04-03T00:04:39;5.40;97.70
2130;DHT22;1071;52.544;13.374;2023-04-03T00:07:06;5.30;97.60
2130;DHT22;1071;52.544;13.374;2023-04-03T00:09:35;5.30;97.90
2130;DHT22;1071;52.544;13.374;2023-04-03T00:12:02;5.40;97.90
2130;DHT22;1071;52.544;13.374;2023-04-03T00:14:29;5.40;98.00
2130;DHT22;1071;52.544;13.374;2023-04-03T00:16:56;5.40;97.70
2130;DHT22;1071;52.544;13.374;2023-04-03T00:19:23;5.40;97.70
2130;DHT22;1071;52.544;13.374;2023-04-03T00:21:52;5.30;98.00
2130;DHT22;1071;52.544;13.374;2023-04-03T00:24:20;5.30;97.80
2130;DHT22;1071;52.544;13.374;2023-04-03T00:26:49;5.30;97.80
2130;DHT22;1071;52.544;13.374;2023-04-03T00:29:16;5.30;98.10
2130;DHT22;1071;52.544;13.374;2023-04-03T00:31:43;5.30;98.00
2130;DHT22;1071;52.544;13.374;2023-04-03T00:34:13;5.30;98.00
2130;DHT22;1071;52.544;13.374;2023-04-03T00:36:43;5.30;98.20
2130;DHT22;1071;52.544;13.374;2023-04-03T00:39:10;5.40;98.30
2130;DHT22;1071;52.544;13.374;2023-04-03T00:41:37;5.30;98.30
2130;DHT22;1071;52.544;13.374;2023-04-03T00:46:57;5.30;98.70
2130;DHT22;1071;52.544;13.374;2023-04-03T00:49:24;5.40;97.90
2130;DHT22;1071;52.544;13.374;2023-04-03T00:51:52;5.30;97.90
2130;DHT22;1071;52.544;13.374;2023-04-03T00:54:20;5.30;97.90
2130;DHT22;1071;52.544;13.374;2023-04-03T00:56:48;5.30;97.80
2130;DHT22;1071;52.544;13.374;2023-04-03T00:59:21;5.20;97.80
2130;DHT22;1071;52.544;13.374;2023-04-03T01:01:52;5.20;97.80
2130;DHT22;1071;52.544;13.374;2023-04-03T01:04:29;5.20;98.00
2130;DHT22;1071;52.544;13.374;2023-04-03T01:06:58;5.20;98.00
2130;DHT22;1071;52.544;13.374;2023-04-03T01:09:26;5.20;98.00
2130;DHT22;1071;52.544;13.374;2023-04-03T01:11:54;5.20;98.20
2130;DHT22;1071;52.544;13.374;2023-04-03T01:14:21;5.30;98.30
2130;DHT22;1071;52.544;13.374;2023-04-03T01:16:52;5.30;98.50
2130;DHT22;1071;52.544;13.374;2023-04-03T01:19:22;5.20;98.30
2130;DHT22;1071;52.544;13.374;2023-04-03T01:22:12;5.30;98.40
2130;DHT22;1071;52.544;13.374;2023-04-03T01:24:43;5.30;98.40
2130;DHT22;1071;52.544;13.374;2023-04-03T01:27:12;5.30;98.30
2130;DHT22;1071;52.544;13.374;2023-04-03T01:29:40;5.30;98.20
2130;DHT22;1071;52.544;13.374;2023-04-03T01:32:11;5.30;98.30
2130;DHT22;1071;52.544;13.374;2023-04-03T01:34:38;5.20;98.30
2130;DHT22;1071;52.544;13.374;2023-04-03T01:37:05;5.20;98.30
2130;DHT22;1071;52.544;13.374;2023-04-03T01:39:32;5.20;98.40
2130;DHT22;1071;52.544;13.374;2023-04-03T01:41:59;5.20;98.50
2130;DHT22;1071;52.544;13.374;2023-04-03T01:44:26;5.20;98.70
2130;DHT22;1071;52.544;13.374;2023-04-03T01:46:53;5.20;98.60
2130;DHT22;1071;52.544;13.374;2023-04-03T01:49:25;5.10;98.50
2130;DHT22;1071;52.544;13.374;2023-04-03T01:51:52;5.10;98.50
2130;DHT22;1071;52.544;13.374;2023-04-03T01:54:19;5.10;98.50
2130;DHT22;1071;52.544;13.374;2023-04-03T01:56:46;5.10;98.70
2130;DHT22;1071;52.544;13.374;2023-04-03T01:59:16;5.10;98.70
2130;DHT22;1071;52.544;13.374;2023-04-03T02:01:44;5.00;98.90
2130;DHT22;1071;52.544;13.374;2023-04-03T02:04:11;5.00;98.90
2130;DHT22;1071;52.544;13.374;2023-04-03T02:06:41;4.90;99.00
2130;DHT22;1071;52.544;13.374;2023-04-03T02:09:10;4.90;99.20
2130;DHT22;1071;52.544;13.374;2023-04-03T02:11:40;4.90;99.30
2130;DHT22;1071;52.544;13.374;2023-04-03T02:14:08;4.80;99.20
2130;DHT22;1071;52.544;13.374;2023-04-03T02:16:35;4.80;99.30
2130;DHT22;1071;52.544;13.374;2023-04-03T02:19:02;4.80;99.30
2130;DHT22;1071;52.544;13.374;2023-04-03T02:21:29;4.80;99.40
2130;DHT22;1071;52.544;13.374;2023-04-03T02:23:58;4.70;99.50
2130;DHT22;1071;52.544;13.374;2023-04-03T02:26:25;4.70;99.60
2130;DHT22;1071;52.544;13.374;2023-04-03T02:28:52;4.70;99.80
2130;DHT22;1071;52.544;13.374;2023-04-03T02:31:24;4.60;99.80
2130;DHT22;1071;52.544;13.374;2023-04-03T02:33:51;4.60;99.90
2130;DHT22;1071;52.544;13.374;2023-04-03T02:36:18;4.60;99.90
2130;DHT22;1071;52.544;13.374;2023-04-03T02:38:45;4.60;99.90
2130;DHT22;1071;52.544;13.374;2023-04-03T02:41:15;4.60;99.90
2130;DHT22;1071;52.544;13.374;2023-04-03T02:43:42;4.60;99.90
2130;DHT22;1071;52.544;13.374;2023-04-03T02:46:09;4.50;99.90
2130;DHT22;1071;52.544;13.374;2023-04-03T02:48:36;4.60;99.90
2130;DHT22;1071;52.544;13.374;2023-04-03T02:51:04;4.60;99.90
2130;DHT22;1071;52.544;13.374;2023-04-03T02:53:37;4.60;99.90
2130;DHT22;1071;52.544;13.374;2023-04-03T02:56:04;4.60;99.90
2130;DHT22;1071;52.544;13.374;2023-04-03T02:58:33;4.50;99.90
2130;DHT22;1071;52.544;13.374;2023-04-03T03:01:02;4.50;99.90
2130;DHT22;1071;52.544;13.374;2023-04-03T03:03:30;4.50;99.90
2130;DHT22;1071;52.544;13.374;2023-04-03T03:06:04;4.50;99.90
2130;DHT22;1071;52.544;13.374;2023-04-03T03:08:32;4.50;99.90
2130;DHT22;1071;52.544;13.374;2023-04-03T03:10:59;4.50;99.90
2130;DHT22;1071;52.544;13.374;2023-04-03T03:13:26;4.50;99.90
2130;DHT22;1071;52.544;13.374;2023-04-03T03:15:59;4.50;99.90
2130;DHT22;1071;52.544;13.374;2023-04-03T03:18:29;4.50;99.90
2130;DHT22;1071;52.544;13.374;2023-04-03T03:20:58;4.40;99.90
2130;DHT22;1071;52.544;13.374;2023-04-03T03:23:27;4.40;99.90
2130;DHT22;1071;52.544;13.374;2023-04-03T03:25:55;4.40;99.90
2130;DHT22;1071;52.544;13.374;2023-04-03T03:28:23;4.30;99.90
2130;DHT22;1071;52.544;13.374;2023-04-03T03:30:50;4.30;99.90
2130;DHT22;1071;52.544;13.374;2023-04-03T03:33:19;4.40;99.90
2130;DHT22;1071;52.544;13.374;2023-04-03T03:35:46;4.40;99.90
2130;DHT22;1071;52.544;13.374;2023-04-03T03:38:13;4.30;99.90
2130;DHT22;1071;52.544;13.374;2023-04-03T03:40:40;4.30;99.90
2130;DHT22;1071;52.544;13.374;2023-04-03T03:43:07;4.30;99.90
2130;DHT22;1071;52.544;13.374;2023-04-03T03:45:34;4.30;99.90
2130;DHT22;1071;52.544;13.374;2023-04-03T03:48:02;4.30;99.90
2130;DHT22;1071;52.544;13.374;2023-04-03T03:50:30;4.30;99.90
2130;DHT22;1071;52.544;13.374;2023-04-03T03:52:57;4.20;99.90
2130;DHT22;1071;52.544;13.374;2023-04-03T03:55:25;4.30;99.90
2130;DHT22;1071;52.544;13.374;2023-04-03T03:57:55;4.20;99.90
2130;DHT22;1071;52.544;13.374;2023-04-03T04:00:22;4.20;99.90
2130;DHT22;1071;52.544;13.374;2023-04-03T04:02:49;4.20;99.90
2130;DHT22;1071;52.544;13.374;2023-04-03T04:05:16;4.20;99.90
2130;DHT22;1071;52.544;13.374;2023-04-03T04:07:44;4.20;99.90
2130;DHT22;1071;52.544;13.374;2023-04-03T04:10:15;4.20;99.90
2130;DHT22;1071;52.544;13.374;2023-04-03T04:12:42;4.20;99.90
2130;DHT22;1071;52.544;13.374;2023-04-03T04:15:10;4.20;99.90
2130;DHT22;1071;52.544;13.374;2023-04-03T04:17:37;4.20;99.90
2130;DHT22;1071;52.544;13.374;2023-04-03T04:20:05;4.20;99.90
2130;DHT22;1071;52.544;13.374;2023-04-03T04:22:49;4.10;99.90
2130;DHT22;1071;52.544;13.374;2023-04-03T04:25:16;4.10;99.90
2130;DHT22;1071;52.544;13.374;2023-04-03T04:27:43;4.20;99.90
2130;DHT22;1071;52.544;13.374;2023-04-03T04:30:11;4.20;99.90
2130;DHT22;1071;52.544;13.374;2023-04-03T04:32:38;4.20;99.90
2130;DHT22;1071;52.544;13.374;2023-04-03T04:35:06;4.20;99.90
2130;DHT22;1071;52.544;13.374;2023-04-03T04:37:34;4.10;99.90
2130;DHT22;1071;52.544;13.374;2023-04-03T04:40:02;4.10;99.90
2130;DHT22;1071;52.544;13.374;2023-04-03T04:42:30;4.10;99.90
2130;DHT22;1071;52.544;13.374;2023-04-03T04:44:57;4.00;99.90
2130;DHT22;1071;52.544;13.374;2023-04-03T04:47:24;4.00;99.90
2130;DHT22;1071;52.544;13.374;2023-04-03T04:49:51;4.00;99.90
2130;DHT22;1071;52.544;13.374;2023-04-03T04:52:18;4.00;99.90
2130;DHT22;1071;52.544;13.374;2023-04-03T04:54:45;4.00;99.90
2130;DHT22;1071;52.544;13.374;2023-04-03T04:57:14;4.00;99.90
2130;DHT22;1071;52.544;13.374;2023-04-03T04:59:41;4.00;99.90
2130;DHT22;1071;52.544;13.374;2023-04-03T05:02:08;4.00;99.90
2130;DHT22;1071;52.544;13.374;2023-04-03T05:04:37;4.00;99.90
2130;DHT22;1071;52.544;13.374;2023-04-03T05:07:11;4.00;99.90
2130;DHT22;1071;52.544;13.374;2023-04-03T05:09:38;4.00;99.90
2130;DHT22;1071;52.544;13.374;2023-04-03T05:12:07;4.00;99.90
2130;DHT22;1071;52.544;13.374;2023-04-03T05:14:45;4.00;99.90
2130;DHT22;1071;52.544;13.374;2023-04-03T05:17:12;4.00;99.90
2130;DHT22;1071;52.544;13.374;2023-04-03T05:19:39;4.00;99.90
2130;DHT22;1071;52.544;13.374;2023-04-03T05:22:06;4.00;99.90
2130;DHT22;1071;52.544;13.374;2023-04-03T05:24:35;4.00;99.90
2130;DHT22;1071;52.544;13.374;2023-04-03T05:27:03;4.00;99.90
2130;DHT22;1071;52.544;13.374;2023-04-03T05:29:29;4.00;99.90
2130;DHT22;1071;52.544;13.374;2023-04-03T05:31:58;3.90;99.90
2130;DHT22;1071;52.544;13.374;2023-04-03T05:34:25;3.90;99.90
2130;DHT22;1071;52.544;13.374;2023-04-03T05:36:52;3.90;99.90
2130;DHT22;1071;52.544;13.374;2023-04-03T05:39:19;3.90;99.90
2130;DHT22;1071;52.544;13.374;2023-04-03T05:41:46;3.90;99.90
2130;DHT22;1071;52.544;13.374;2023-04-03T05:44:13;3.90;99.90
2130;DHT22;1071;52.544;13.374;2023-04-03T05:46:40;3.90;99.90
2130;DHT22;1071;52.544;13.374;2023-04-03T05:49:08;4.00;99.90
2130;DHT22;1071;52.544;13.374;2023-04-03T05:51:41;4.00;99.90
2130;DHT22;1071;52.544;13.374;2023-04-03T05:54:13;4.00;99.90
2130;DHT22;1071;52.544;13.374;2023-04-03T05:56:42;4.10;99.90
2130;DHT22;1071;52.544;13.374;2023-04-03T05:59:10;4.00;99.90
2130;DHT22;1071;52.544;13.374;2023-04-03T06:01:42;4.00;99.90
2130;DHT22;1071;52.544;13.374;2023-04-03T06:04:10;4.10;99.90
2130;DHT22;1071;52.544;13.374;2023-04-03T06:06:46;4.10;99.90
2130;DHT22;1071;52.544;13.374;2023-04-03T06:09:15;4.20;99.90
2130;DHT22;1071;52.544;13.374;2023-04-03T06:11:42;4.30;99.90
2130;DHT22;1071;52.544;13.374;2023-04-03T06:14:10;4.30;99.90
2130;DHT22;1071;52.544;13.374;2023-04-03T06:16:37;4.40;99.90
2130;DHT22;1071;52.544;13.374;2023-04-03T06:19:05;4.40;99.90
2130;DHT22;1071;52.544;13.374;2023-04-03T06:21:33;4.50;99.90
2130;DHT22;1071;52.544;13.374;2023-04-03T06:24:01;4.50;99.90
2130;DHT22;1071;52.544;13.374;2023-04-03T06:26:28;4.50;99.90
2130;DHT22;1071;52.544;13.374;2023-04-03T06:28:55;4.50;99.90
2130;DHT22;1071;52.544;13.374;2023-04-03T06:31:24;4.60;99.90
2130;DHT22;1071;52.544;13.374;2023-04-03T06:33:51;4.60;99.90
2130;DHT22;1071;52.544;13.374;2023-04-03T06:36:21;4.70;99.90
2130;DHT22;1071;52.544;13.374;2023-04-03T06:38:50;4.80;99.90
2130;DHT22;1071;52.544;13.374;2023-04-03T06:41:23;4.80;99.90
2130;DHT22;1071;52.544;13.374;2023-04-03T06:43:54;4.90;99.90
2130;DHT22;1071;52.544;13.374;2023-04-03T06:46:23;5.00;99.90
2130;DHT22;1071;52.544;13.374;2023-04-03T06:48:50;5.10;99.90
2130;DHT22;1071;52.544;13.374;2023-04-03T06:51:19;5.10;99.90
2130;DHT22;1071;52.544;13.374;2023-04-03T06:53:46;5.20;99.90
2130;DHT22;1071;52.544;13.374;2023-04-03T06:56:16;5.30;99.90
2130;DHT22;1071;52.544;13.374;2023-04-03T06:58:44;5.30;99.90
2130;DHT22;1071;52.544;13.374;2023-04-03T07:01:17;5.40;99.90
2130;DHT22;1071;52.544;13.374;2023-04-03T07:03:45;5.50;99.60
2130;DHT22;1071;52.544;13.374;2023-04-03T07:06:14;5.50;99.00
2130;DHT22;1071;52.544;13.374;2023-04-03T07:08:45;5.50;98.70
2130;DHT22;1071;52.544;13.374;2023-04-03T07:11:13;5.50;98.30
2130;DHT22;1071;52.544;13.374;2023-04-03T07:13:42;5.50;98.20
2130;DHT22;1071;52.544;13.374;2023-04-03T07:16:09;5.60;98.30
2130;DHT22;1071;52.544;13.374;2023-04-03T07:18:36;5.70;97.30
2130;DHT22;1071;52.544;13.374;2023-04-03T07:21:04;5.80;97.30
2130;DHT22;1071;52.544;13.374;2023-04-03T07:23:31;5.90;96.90
2130;DHT22;1071;52.544;13.374;2023-04-03T07:25:59;6.00;96.50
2130;DHT22;1071;52.544;13.374;2023-04-03T07:28:27;6.20;95.30
2130;DHT22;1071;52.544;13.374;2023-04-03T07:31:01;6.20;94.80
2130;DHT22;1071;52.544;13.374;2023-04-03T07:33:32;6.40;94.30
2130;DHT22;1071;52.544;13.374;2023-04-03T07:35:59;6.40;92.50
2130;DHT22;1071;52.544;13.374;2023-04-03T07:38:26;6.40;92.30
2130;DHT22;1071;52.544;13.374;2023-04-03T07:40:53;6.50;92.20
2130;DHT22;1071;52.544;13.374;2023-04-03T07:43:26;6.50;92.00
2130;DHT22;1071;52.544;13.374;2023-04-03T07:45:53;6.60;91.40
2130;DHT22;1071;52.544;13.374;2023-04-03T07:48:24;6.50;91.10
2130;DHT22;1071;52.544;13.374;2023-04-03T07:50:52;6.50;91.40
2130;DHT22;1071;52.544;13.374;2023-04-03T07:53:19;6.50;91.20
2130;DHT22;1071;52.544;13.374;2023-04-03T07:55:47;6.50;91.40
2130;DHT22;1071;52.544;13.374;2023-04-03T07:58:17;6.60;90.30
2130;DHT22;1071;52.544;13.374;2023-04-03T08:00:45;6.60;89.90
2130;DHT22;1071;52.544;13.374;2023-04-03T08:03:14;6.60;88.90
2130;DHT22;1071;52.544;13.374;2023-04-03T08:05:44;6.50;88.50
2130;DHT22;1071;52.544;13.374;2023-04-03T08:08:13;6.50;89.30
2130;DHT22;1071;52.544;13.374;2023-04-03T08:10:45;6.50;89.90
2130;DHT22;1071;52.544;13.374;2023-04-03T08:13:16;6.40;89.30
2130;DHT22;1071;52.544;13.374;2023-04-03T08:15:44;6.50;90.00
2130;DHT22;1071;52.544;13.374;2023-04-03T08:18:11;6.50;89.30
2130;DHT22;1071;52.544;13.374;2023-04-03T08:20:39;6.60;90.20
2130;DHT22;1071;52.544;13.374;2023-04-03T08:23:08;6.70;89.30
2130;DHT22;1071;52.544;13.374;2023-04-03T08:25:38;6.70;88.90
2130;DHT22;1071;52.544;13.374;2023-04-03T08:28:08;6.70;87.40
2130;DHT22;1071;52.544;13.374;2023-04-03T08:30:38;6.80;88.40
2130;DHT22;1071;52.544;13.374;2023-04-03T08:33:05;6.90;88.10
2130;DHT22;1071;52.544;13.374;2023-04-03T08:35:32;7.00;88.00
2130;DHT22;1071;52.544;13.374;2023-04-03T08:37:59;6.90;85.30
2130;DHT22;1071;52.544;13.374;2023-04-03T08:40:28;7.00;85.20
2130;DHT22;1071;52.544;13.374;2023-04-03T08:43:09;7.10;85.70
2130;DHT22;1071;52.544;13.374;2023-04-03T08:45:45;7.20;85.90
2130;DHT22;1071;52.544;13.374;2023-04-03T08:48:18;7.20;85.00
2130;DHT22;1071;52.544;13.374;2023-04-03T08:50:50;7.30;83.60
2130;DHT22;1071;52.544;13.374;2023-04-03T08:53:20;7.30;82.80
2130;DHT22;1071;52.544;13.374;2023-04-03T08:55:50;7.40;80.40
2130;DHT22;1071;52.544;13.374;2023-04-03T08:58:19;7.30;79.10
2130;DHT22;1071;52.544;13.374;2023-04-03T09:00:50;7.30;80.40
2130;DHT22;1071;52.544;13.374;2023-04-03T09:03:20;7.20;80.60
2130;DHT22;1071;52.544;13.374;2023-04-03T09:05:50;7.30;81.20
2130;DHT22;1071;52.544;13.374;2023-04-03T09:08:25;7.30;81.30
2130;DHT22;1071;52.544;13.374;2023-04-03T09:11:01;7.30;81.20
2130;DHT22;1071;52.544;13.374;2023-04-03T09:13:36;7.40;79.20
2130;DHT22;1071;52.544;13.374;2023-04-03T09:16:19;7.40;78.10
2130;DHT22;1071;52.544;13.374;2023-04-03T09:18:59;7.40;78.20
2130;DHT22;1071;52.544;13.374;2023-04-03T09:21:33;7.30;76.90
2130;DHT22;1071;52.544;13.374;2023-04-03T09:24:06;7.20;77.00
2130;DHT22;1071;52.544;13.374;2023-04-03T09:26:41;7.20;76.00
2130;DHT22;1071;52.544;13.374;2023-04-03T09:29:14;7.10;76.10
2130;DHT22;1071;52.544;13.374;2023-04-03T09:31:43;7.10;77.20
2130;DHT22;1071;52.544;13.374;2023-04-03T09:34:18;7.10;77.70
2130;DHT22;1071;52.544;13.374;2023-04-03T09:36:50;7.10;76.70
2130;DHT22;1071;52.544;13.374;2023-04-03T09:39:22;7.10;77.00
2130;DHT22;1071;52.544;13.374;2023-04-03T09:42:00;7.10;77.10
2130;DHT22;1071;52.544;13.374;2023-04-03T09:44:30;7.00;77.60
2130;DHT22;1071;52.544;13.374;2023-04-03T09:46:58;7.00;77.80
2130;DHT22;1071;52.544;13.374;2023-04-03T09:49:26;7.00;77.90
2130;DHT22;1071;52.544;13.374;2023-04-03T09:51:53;7.10;78.10
2130;DHT22;1071;52.544;13.374;2023-04-03T09:54:41;7.20;78.80
2130;DHT22;1071;52.544;13.374;2023-04-03T09:57:11;7.20;77.60
2130;DHT22;1071;52.544;13.374;2023-04-03T09:59:47;7.30;77.10
2130;DHT22;1071;52.544;13.374;2023-04-03T10:02:32;7.30;77.00
2130;DHT22;1071;52.544;13.374;2023-04-03T10:05:01;7.40;76.60
2130;DHT22;1071;52.544;13.374;2023-04-03T10:07:32;7.40;77.30
2130;DHT22;1071;52.544;13.374;2023-04-03T10:10:01;7.60;77.10
2130;DHT22;1071;52.544;13.374;2023-04-03T10:12:30;7.70;76.10
2130;DHT22;1071;52.544;13.374;2023-04-03T10:14:59;7.70;75.10
2130;DHT22;1071;52.544;13.374;2023-04-03T10:17:36;7.60;74.60
2130;DHT22;1071;52.544;13.374;2023-04-03T10:20:15;7.80;74.50
2130;DHT22;1071;52.544;13.374;2023-04-03T10:22:55;7.80;73.90
2130;DHT22;1071;52.544;13.374;2023-04-03T10:25:30;7.90;72.90
2130;DHT22;1071;52.544;13.374;2023-04-03T10:28:01;8.00;73.00
2130;DHT22;1071;52.544;13.374;2023-04-03T10:30:36;8.10;71.50
2130;DHT22;1071;52.544;13.374;2023-04-03T10:33:20;8.10;71.10
2130;DHT22;1071;52.544;13.374;2023-04-03T10:36:01;8.10;70.30
2130;DHT22;1071;52.544;13.374;2023-04-03T10:38:33;8.20;70.20
2130;DHT22;1071;52.544;13.374;2023-04-03T10:41:05;8.20;70.90
2130;DHT22;1071;52.544;13.374;2023-04-03T10:43:43;8.20;69.10
2130;DHT22;1071;52.544;13.374;2023-04-03T10:46:15;8.20;68.60
2130;DHT22;1071;52.544;13.374;2023-04-03T10:51:44;8.10;67.70
2130;DHT22;1071;52.544;13.374;2023-04-03T10:54:15;8.10;70.10
2130;DHT22;1071;52.544;13.374;2023-04-03T10:56:48;8.10;68.90
2130;DHT22;1071;52.544;13.374;2023-04-03T10:59:24;8.20;69.70
2130;DHT22;1071;52.544;13.374;2023-04-03T11:01:55;8.20;69.60
2130;DHT22;1071;52.544;13.374;2023-04-03T11:04:28;8.20;69.50
2130;DHT22;1071;52.544;13.374;2023-04-03T11:07:00;8.40;70.30
2130;DHT22;1071;52.544;13.374;2023-04-03T11:09:31;8.40;70.30
2130;DHT22;1071;52.544;13.374;2023-04-03T11:12:03;8.50;70.00
2130;DHT22;1071;52.544;13.374;2023-04-03T11:14:36;8.50;68.30
2130;DHT22;1071;52.544;13.374;2023-04-03T11:17:11;8.40;68.30
2130;DHT22;1071;52.544;13.374;2023-04-03T11:19:46;8.40;69.10
2130;DHT22;1071;52.544;13.374;2023-04-03T11:22:22;8.40;69.50
2130;DHT22;1071;52.544;13.374;2023-04-03T11:24:59;8.40;70.10
2130;DHT22;1071;52.544;13.374;2023-04-03T11:27:35;8.40;70.60
2130;DHT22;1071;52.544;13.374;2023-04-03T11:30:13;8.40;70.20
2130;DHT22;1071;52.544;13.374;2023-04-03T11:33:00;8.40;70.10
2130;DHT22;1071;52.544;13.374;2023-04-03T11:35:33;8.30;70.60
2130;DHT22;1071;52.544;13.374;2023-04-03T11:38:01;8.40;71.50
2130;DHT22;1071;52.544;13.374;2023-04-03T11:40:32;8.40;71.10
2130;DHT22;1071;52.544;13.374;2023-04-03T11:43:06;8.30;69.80
2130;DHT22;1071;52.544;13.374;2023-04-03T11:45:40;8.20;69.70
2130;DHT22;1071;52.544;13.374;2023-04-03T11:48:42;8.20;70.60
2130;DHT22;1071;52.544;13.374;2023-04-03T11:54:43;8.30;70.50
2130;DHT22;1071;52.544;13.374;2023-04-03T11:57:51;8.20;70.30
2130;DHT22;1071;52.544;13.374;2023-04-03T12:07:02;8.20;71.20
2130;DHT22;1071;52.544;13.374;2023-04-03T12:10:18;8.20;72.20
2130;DHT22;1071;52.544;13.374;2023-04-03T12:12:59;8.20;73.20
2130;DHT22;1071;52.544;13.374;2023-04-03T12:15:51;8.20;74.20
2130;DHT22;1071;52.544;13.374;2023-04-03T12:18:53;8.30;74.10
2130;DHT22;1071;52.544;13.374;2023-04-03T12:21:22;8.30;73.50
2130;DHT22;1071;52.544;13.374;2023-04-03T12:24:01;8.30;73.90
2130;DHT22;1071;52.544;13.374;2023-04-03T12:26:36;8.30;73.50
2130;DHT22;1071;52.544;13.374;2023-04-03T12:29:15;8.20;73.20
2130;DHT22;1071;52.544;13.374;2023-04-03T12:31:57;8.30;73.10
2130;DHT22;1071;52.544;13.374;2023-04-03T12:34:41;8.20;73.30
2130;DHT22;1071;52.544;13.374;2023-04-03T12:37:21;8.20;74.30
2130;DHT22;1071;52.544;13.374;2023-04-03T12:40:01;8.30;75.00
2130;DHT22;1071;52.544;13.374;2023-04-03T12:43:10;8.40;75.40
2130;DHT22;1071;52.544;13.374;2023-04-03T12:45:47;8.40;72.30
2130;DHT22;1071;52.544;13.374;2023-04-03T12:48:18;8.40;70.80
2130;DHT22;1071;52.544;13.374;2023-04-03T12:50:47;8.40;69.30
2130;DHT22;1071;52.544;13.374;2023-04-03T12:53:19;8.50;70.00
2130;DHT22;1071;52.544;13.374;2023-04-03T12:55:53;8.60;68.80
2130;DHT22;1071;52.544;13.374;2023-04-03T12:58:23;8.60;68.90
2130;DHT22;1071;52.544;13.374;2023-04-03T13:01:01;8.60;69.50
2130;DHT22;1071;52.544;13.374;2023-04-03T13:03:29;8.70;69.90
2130;DHT22;1071;52.544;13.374;2023-04-03T13:06:00;8.70;70.00
2130;DHT22;1071;52.544;13.374;2023-04-03T13:08:29;8.70;70.70
2130;DHT22;1071;52.544;13.374;2023-04-03T13:11:01;8.70;70.90
2130;DHT22;1071;52.544;13.374;2023-04-03T13:13:29;8.70;71.20
2130;DHT22;1071;52.544;13.374;2023-04-03T13:15:57;8.50;71.30
2130;DHT22;1071;52.544;13.374;2023-04-03T13:18:28;8.60;71.60
2130;DHT22;1071;52.544;13.374;2023-04-03T13:20:59;8.50;71.70
2130;DHT22;1071;52.544;13.374;2023-04-03T13:23:28;8.50;72.70
2130;DHT22;1071;52.544;13.374;2023-04-03T13:25:55;8.60;72.10
2130;DHT22;1071;52.544;13.374;2023-04-03T13:28:28;8.60;72.50
2130;DHT22;1071;52.544;13.374;2023-04-03T13:31:00;8.60;72.60
2130;DHT22;1071;52.544;13.374;2023-04-03T13:33:30;8.70;72.60
2130;DHT22;1071;52.544;13.374;2023-04-03T13:36:03;8.70;72.30
2130;DHT22;1071;52.544;13.374;2023-04-03T13:38:33;8.70;72.60
2130;DHT22;1071;52.544;13.374;2023-04-03T13:41:20;8.80;72.60
2130;DHT22;1071;52.544;13.374;2023-04-03T13:43:49;8.80;72.90
2130;DHT22;1071;52.544;13.374;2023-04-03T13:46:25;8.80;72.00
2130;DHT22;1071;52.544;13.374;2023-04-03T13:48:55;8.70;72.20
2130;DHT22;1071;52.544;13.374;2023-04-03T13:51:24;8.70;72.10
2130;DHT22;1071;52.544;13.374;2023-04-03T13:53:53;8.70;71.70
2130;DHT22;1071;52.544;13.374;2023-04-03T13:56:24;8.70;71.70
2130;DHT22;1071;52.544;13.374;2023-04-03T13:58:59;8.70;72.20
2130;DHT22;1071;52.544;13.374;2023-04-03T14:01:43;8.70;72.20
2130;DHT22;1071;52.544;13.374;2023-04-03T14:04:16;8.70;72.30
2130;DHT22;1071;52.544;13.374;2023-04-03T14:06:44;8.80;73.00
2130;DHT22;1071;52.544;13.374;2023-04-03T14:09:11;8.80;72.50
2130;DHT22;1071;52.544;13.374;2023-04-03T14:11:39;8.80;72.70
2130;DHT22;1071;52.544;13.374;2023-04-03T14:14:12;8.70;72.30
2130;DHT22;1071;52.544;13.374;2023-04-03T14:16:48;8.70;72.70
2130;DHT22;1071;52.544;13.374;2023-04-03T14:19:22;8.70;73.10
2130;DHT22;1071;52.544;13.374;2023-04-03T14:21:50;8.70;71.90
2130;DHT22;1071;52.544;13.374;2023-04-03T14:24:18;8.70;70.90
2130;DHT22;1071;52.544;13.374;2023-04-03T14:26:47;8.60;71.50
2130;DHT22;1071;52.544;13.374;2023-04-03T14:29:16;8.60;72.40
2130;DHT22;1071;52.544;13.374;2023-04-03T14:31:44;8.50;72.60
2130;DHT22;1071;52.544;13.374;2023-04-03T14:34:12;8.60;73.20
2130;DHT22;1071;52.544;13.374;2023-04-03T14:36:41;8.50;73.30
2130;DHT22;1071;52.544;13.374;2023-04-03T14:39:11;8.50;73.60
2130;DHT22;1071;52.544;13.374;2023-04-03T14:41:43;8.50;73.80
2130;DHT22;1071;52.544;13.374;2023-04-03T14:44:11;8.60;74.30
2130;DHT22;1071;52.544;13.374;2023-04-03T14:46:42;8.60;74.70
2130;DHT22;1071;52.544;13.374;2023-04-03T14:49:14;8.70;74.50
2130;DHT22;1071;52.544;13.374;2023-04-03T14:51:41;8.70;74.50
2130;DHT22;1071;52.544;13.374;2023-04-03T14:54:13;8.60;74.80
2130;DHT22;1071;52.544;13.374;2023-04-03T14:56:40;8.50;74.90
2130;DHT22;1071;52.544;13.374;2023-04-03T14:59:10;8.50;75.40
2130;DHT22;1071;52.544;13.374;2023-04-03T15:01:39;8.50;76.10
2130;DHT22;1071;52.544;13.374;2023-04-03T15:04:11;8.40;76.40
2130;DHT22;1071;52.544;13.374;2023-04-03T15:06:39;8.50;76.50
2130;DHT22;1071;52.544;13.374;2023-04-03T15:09:14;8.50;76.90
2130;DHT22;1071;52.544;13.374;2023-04-03T15:11:47;8.50;77.20
2130;DHT22;1071;52.544;13.374;2023-04-03T15:14:14;8.40;77.30
2130;DHT22;1071;52.544;13.374;2023-04-03T15:16:46;8.40;77.70
2130;DHT22;1071;52.544;13.374;2023-04-03T15:19:13;8.40;78.00
2130;DHT22;1071;52.544;13.374;2023-04-03T15:21:40;8.40;78.20
2130;DHT22;1071;52.544;13.374;2023-04-03T15:24:08;8.30;78.70
2130;DHT22;1071;52.544;13.374;2023-04-03T15:26:36;8.20;79.70
2130;DHT22;1071;52.544;13.374;2023-04-03T15:29:07;8.30;80.10
2130;DHT22;1071;52.544;13.374;2023-04-03T15:31:34;8.30;80.20
2130;DHT22;1071;52.544;13.374;2023-04-03T15:34:03;8.20;79.50
2130;DHT22;1071;52.544;13.374;2023-04-03T15:36:30;8.20;79.40
2130;DHT22;1071;52.544;13.374;2023-04-03T15:38:57;8.20;79.10
2130;DHT22;1071;52.544;13.374;2023-04-03T15:41:24;8.20;78.60
2130;DHT22;1071;52.544;13.374;2023-04-03T15:43:57;8.10;78.60
2130;DHT22;1071;52.544;13.374;2023-04-03T15:46:27;8.10;79.30
2130;DHT22;1071;52.544;13.374;2023-04-03T15:48:54;8.10;79.80
2130;DHT22;1071;52.544;13.374;2023-04-03T15:51:23;8.10;79.90
2130;DHT22;1071;52.544;13.374;2023-04-03T15:53:50;8.10;79.40
2130;DHT22;1071;52.544;13.374;2023-04-03T15:56:17;8.10;79.30
2130;DHT22;1071;52.544;13.374;2023-04-03T15:58:44;8.10;79.20
2130;DHT22;1071;52.544;13.374;2023-04-03T16:01:11;8.10;79.30
2130;DHT22;1071;52.544;13.374;2023-04-03T16:03:40;8.10;79.90
2130;DHT22;1071;52.544;13.374;2023-04-03T16:06:10;8.10;80.10
2130;DHT22;1071;52.544;13.374;2023-04-03T16:08:39;8.10;80.20
2130;DHT22;1071;52.544;13.374;2023-04-03T16:11:06;8.00;80.00
2130;DHT22;1071;52.544;13.374;2023-04-03T16:13:33;8.00;80.30
2130;DHT22;1071;52.544;13.374;2023-04-03T16:16:00;8.00;80.80
2130;DHT22;1071;52.544;13.374;2023-04-03T16:18:28;8.00;80.90
2130;DHT22;1071;52.544;13.374;2023-04-03T16:20:56;8.00;81.10
2130;DHT22;1071;52.544;13.374;2023-04-03T16:23:27;8.00;81.30
2130;DHT22;1071;52.544;13.374;2023-04-03T16:25:55;8.00;81.30
2130;DHT22;1071;52.544;13.374;2023-04-03T16:28:23;8.00;81.60
2130;DHT22;1071;52.544;13.374;2023-04-03T16:30:50;8.10;81.90
2130;DHT22;1071;52.544;13.374;2023-04-03T16:33:17;8.10;81.90
2130;DHT22;1071;52.544;13.374;2023-04-03T16:35:46;8.00;81.40
2130;DHT22;1071;52.544;13.374;2023-04-03T16:38:14;8.00;81.80
2130;DHT22;1071;52.544;13.374;2023-04-03T16:40:41;8.10;82.20